Impacts METAR Board
IDs:

KLGA - New York/La Guardia, NY, US

Updated at: 2100 UTC 06 Dec 2019
Potential Impact None Slight Moderate High
Time 06/09Z 06/10Z 06/11Z 06/12Z 06/13Z 06/14Z 06/15Z 06/16Z 06/17Z 06/18Z 06/19Z 06/20Z 06/21Z
Temp36 36 37 38 38 40 41 43 44 45 47 49 50
Dewpt20 20 21 20 21 22 23 24 24 24 26 25 25
Altim30.13 30.13 30.14 30.14 30.14 30.14 30.12 30.08 30.04 30.00 29.97 29.94 29.94
VIS10 10 10 10 10 10 10 10 10 10 10 10 10
CIG220 220 130 130 130 220 95 95 85 110 100 100 80
CoverOVCBKNBKNOVCBKNBKNOVCOVCBKNOVCOVCOVCOVC
FltCatVFRVFRVFRVFRVFRVFRVFRVFRVFRVFRVFRVFRVFR
WX--------------------------
WDir310270260260200210210220210190220210220
WSpd12 4 8 9 6 11 9 9 10 12 9 14 12
WGst-- -- -- -- -- -- 16 -- 20 -- -- -- 23
Raw hourly METARs
KLGA 060851Z 31012KT 10SM OVC220 02/M07 A3013 RMK AO2 SLP202 T00221067 50007
KLGA 060951Z 27004KT 10SM BKN220 02/M07 A3013 RMK AO2 SLP204 T00221067
KLGA 061051Z 26008KT 10SM BKN130 BKN220 03/M06 A3014 RMK AO2 SLP204 T00281061
KLGA 061151Z 26009KT 10SM FEW085 BKN130 OVC250 03/M07 A3014 RMK AO2 SLP206 T00331067 10033 20022 53004
KLGA 061251Z 20006KT 10SM BKN130 BKN250 03/M06 A3014 RMK AO2 SLP204 T00331061
KLGA 061351Z 21011KT 10SM FEW075 SCT130 BKN220 04/M06 A3014 RMK AO2 SLP205 T00441056
KLGA 061451Z 21009G16KT 10SM SCT070 BKN095 BKN110 OVC220 05/M05 A3012 RMK AO2 SLP198 T00501050 58008
KLGA 061551Z 22009KT 10SM SCT080 BKN095 OVC230 06/M04 A3008 RMK AO2 SLP185 T00611044
KLGA 061651Z 21010G20KT 10SM BKN085 BKN110 BKN250 07/M04 A3004 RMK AO2 SLP172 T00671044
KLGA 061751Z 19012KT 10SM FEW080 BKN110 OVC250 07/M04 A3000 RMK AO2 SLP157 T00721044 10072 20033 58042
KLGA 061851Z 22009KT 10SM BKN100 OVC180 08/M03 A2997 RMK AO2 SLP149 T00831033
KLGA 061951Z 21014KT 10SM SCT070 OVC100 09/M04 A2994 RMK AO2 SLP138 T00941039
KLGA 062051Z 22012G23KT 10SM FEW060 BKN080 OVC090 10/M04 A2994 RMK AO2 RAB26E44 SLP137 P0000 60000 T01001039 56019



Page loaded:  21:05 UTC  |   01:05 PM Pacific  |   02:05 PM Mountain  |   03:05 PM Central  |   04:05 PM Eastern

 

ADVISORIES

FORECASTS

FORECASTS

OBSERVATIONS

USER TOOLS

ABOUT US